Rogers, AR (72756)

5:02 PM CST on December 27, 2014 (GMT -0600)
Little Flock | Change Station
CLOSE
Current Station
Personal Weather Station
Location: Little Flock, AR
Elevation: 1293 ft
Nearby Weather Stations
Active Advisory: Winter Weather Advisory Active Notice: Public Information Statement

Elev 1293 ft 36.39 °N, 94.14 °W | Updated 2 minutes ago

Ice Pellets
Ice Pellets
31.9 °F
Feels Like 32 °F
N
1.0
Wind Variable Wind from NNW
Gusts 0.0 mph

Today
High -- | Low -- °F
--% Chance of Precip.
Yesterday
High -- | Low -- °F
Precip. -- in
7:26 AM 5:08 PM
Waxing Crescent, 41% visible
Pressure 30.24 in
Visibility 10.0 miles
Clouds Overcast 800 ft
Windchill 32 °F
Dew Point 31 °F
Humidity 96%
Rainfall 0.23 in
Snow Depth Not available.
UV 0 out of 12
Pollen 5.50 out of 12
Air Quality Not available.
Flu Activity Not available.
METAR KROG 272257Z 33009KT 10SM OVC008 M01/M01 A3022 RMK AO2 UPB24E35FZRAE24 CIG 006V011 SLP240 P0001 T10061011

More Conditions Fewer Conditions

Pressure 30.24 in
Visibility 10.0 miles
Clouds Overcast 800 ft
Windchill 32 °F
Dew Point 31 °F
Humidity 96%
Rainfall 0.23 in
Snow Depth Not available.
UV 0 out of 12
Pollen 5.50 out of 12
Air Quality Not available.
Flu Activity Not available.
METAR KROG 272257Z 33009KT 10SM OVC008 M01/M01 A3022 RMK AO2 UPB24E35FZRAE24 CIG 006V011 SLP240 P0001 T10061011

More Conditions Fewer Conditions

Nowcast | as of 4:32 PM CST on December 27, 2014

At 4:32 PM...National Weather Service Doppler radars indicated an area of precipitation lifting northeast at around 30 mph across parts of eastern Oklahoma and western Arkansas. The entire area was shifting quickly eastward. Through 5:45 PM...occasional light rain will remain possible for east-central and southeast Oklahoma...as well as west-central Arkansas. A mix of light rain...sleet and light snow will be possible for the northwest corner of Arkansas during this time... with little accumulation expected. The precipitation will be ending from west to east...with locations along and east of an Antlers Oklahoma to Pea Ridge Arkansas line likely impacted during this time.

×

10-Day Weather Forecast

Almanac

Astronomy

Dec. 27, 2014 Rise Set
Actual Time
Civil Twilight
Nautical Twilight
Astronomical Twilight
Moon
Length of Visible Light
Length of Day
Tomorrow will be .
, % of the Moon is Illuminated

Today's Extremes

State Highs State Lows

Community

WunderPhotos

Upload Photos

1,781,100 photos uploaded!

WunderBlogs® & News

Nearby

Air Quality

  Air Quality AQ Index Pollutant
Not available.

Snow Depth

Station Depth Elevation

Earthquake Activity

City Distance Mag. Time & Date
Minimum magnitude displayed is 2.5.

Coastal Water Temperatures

Place Temperature

Nearby Weather Stations